Time;durP1;ratioP1;P1;durP2;ratioP2;P2;SDS_P1;SDS_P2;PMS_P1;PMS_P2;Temp;Humidity;BMP_temperature;BMP_pressure;BME280_temperature;BME280_humidity;BME280_pressure;Samples;Min_cycle;Max_cycle;Signal;HPM_P1;HPM_P2
2022/08/29 00:01:05;;;;;;;7.10;6.43;;;21.70;79.10;22.10;96672.00;;;;5093504;28;20252;-85
2022/08/29 00:03:33;;;;;;;7.20;6.57;;;21.70;79.20;22.10;96664.00;;;;5075170;28;20207;-85
2022/08/29 00:06:02;;;;;;;7.07;6.00;;;21.70;79.30;22.10;96668.00;;;;5072836;28;20251;-85
2022/08/29 00:08:31;;;;;;;6.80;6.20;;;21.60;79.30;22.10;96656.00;;;;5072677;28;20208;-86
2022/08/29 00:11:01;;;;;;;6.67;6.00;;;21.60;79.20;22.10;96658.00;;;;5072024;28;20257;-86
2022/08/29 00:13:28;;;;;;;6.97;6.07;;;21.60;79.00;22.00;96667.00;;;;5072217;28;20195;-86
2022/08/29 00:15:58;;;;;;;7.00;6.40;;;21.60;78.90;22.00;96660.00;;;;5071659;28;20204;-86
2022/08/29 00:18:27;;;;;;;7.10;6.50;;;21.50;78.80;22.00;96657.00;;;;5072233;28;20202;-86
2022/08/29 00:20:55;;;;;;;6.87;6.27;;;21.50;78.80;22.00;96667.00;;;;5071954;28;20262;-85
2022/08/29 00:23:23;;;;;;;6.43;5.93;;;21.50;78.70;21.90;96657.00;;;;5072581;28;20203;-85
2022/08/29 00:25:51;;;;;;;6.70;6.10;;;21.50;78.70;21.90;96661.00;;;;5072720;28;20223;-85
2022/08/29 00:28:18;;;;;;;8.40;6.20;;;21.40;78.80;21.90;96659.00;;;;5072927;28;20204;-85
2022/08/29 00:30:46;;;;;;;6.53;5.97;;;21.40;78.60;21.80;96664.00;;;;5072988;28;20281;-85
2022/08/29 00:33:13;;;;;;;6.50;6.00;;;21.40;78.40;21.80;96663.00;;;;5088421;28;20250;-85
2022/08/29 00:35:43;;;;;;;6.23;5.77;;;21.40;78.30;21.70;96673.00;;;;5092630;28;20200;-85
2022/08/29 00:38:15;;;;;;;7.00;6.30;;;21.30;78.20;21.70;96668.00;;;;5093434;28;20190;-86
2022/08/29 00:40:47;;;;;;;7.30;6.63;;;21.30;78.30;21.60;96676.00;;;;5093272;28;20251;-86
2022/08/29 00:43:14;;;;;;;6.97;6.37;;;21.30;78.60;21.60;96675.00;;;;5093243;28;20214;-88
2022/08/29 00:45:53;;;;;;;6.80;6.17;;;21.20;78.70;21.60;96668.00;;;;5091840;28;20294;-85
2022/08/29 00:48:21;;;;;;;6.80;6.27;;;21.20;78.70;21.50;96674.00;;;;5092076;28;20342;-88
2022/08/29 00:50:53;;;;;;;7.20;6.60;;;21.10;78.70;21.50;96678.00;;;;5092101;28;20270;-86
2022/08/29 00:53:31;;;;;;;5.87;5.47;;;21.10;78.70;21.50;96670.00;;;;5092650;28;20550;-85
2022/08/29 00:56:01;;;;;;;6.50;5.90;;;21.10;78.80;21.50;96673.00;;;;5091193;28;20321;-85
2022/08/29 00:58:38;;;;;;;7.07;6.37;;;21.10;79.00;21.50;96670.00;;;;5091465;28;20209;-85
2022/08/29 01:01:05;;;;;;;5.63;5.23;;;21.10;79.20;21.50;96669.00;;;;5092815;28;20203;-85
2022/08/29 01:03:36;;;;;;;5.30;4.90;;;21.00;79.30;21.50;96669.00;;;;5092464;28;20199;-86
2022/08/29 01:06:05;;;;;;;5.27;4.87;;;21.00;79.50;21.50;96676.00;;;;5092124;28;20344;-85
2022/08/29 01:08:33;;;;;;;7.13;6.43;;;21.00;79.60;21.40;96680.00;;;;5092165;28;20202;-85
2022/08/29 01:13:51;;;;;;;5.83;5.10;;;21.00;79.40;21.40;96682.00;;;;5092476;28;20194;-86
2022/08/29 01:16:20;;;;;;;4.97;4.27;;;21.00;79.20;21.40;96677.00;;;;5092493;28;20580;-85
2022/08/29 01:18:53;;;;;;;5.37;4.97;;;21.00;79.30;21.30;96673.00;;;;5091808;28;20251;-86
2022/08/29 01:21:44;;;;;;;5.53;5.00;;;20.90;79.10;21.30;96673.00;;;;5091393;28;20202;-85
2022/08/29 01:24:29;;;;;;;4.87;4.47;;;20.90;78.90;21.30;96667.00;;;;5091082;28;20195;-88
2022/08/29 01:26:57;;;;;;;5.60;5.13;;;20.90;78.90;21.30;96672.00;;;;5090696;28;20289;-85
2022/08/29 01:29:24;;;;;;;6.07;5.57;;;20.90;79.00;21.30;96667.00;;;;5090949;28;20661;-85
2022/08/29 01:31:53;;;;;;;5.30;4.73;;;20.80;79.20;21.30;96665.00;;;;5090949;28;20206;-88
2022/08/29 01:34:21;;;;;;;5.50;5.10;;;20.80;79.40;21.20;96664.00;;;;5091371;28;20201;-85
2022/08/29 01:36:54;;;;;;;5.30;4.90;;;20.80;79.40;21.20;96666.00;;;;5092287;28;20199;-85
2022/08/29 01:39:27;;;;;;;10.10;5.57;;;20.80;79.20;21.20;96673.00;;;;5092233;28;20589;-85
2022/08/29 01:41:56;;;;;;;5.50;5.00;;;20.80;78.90;21.20;96680.00;;;;5092097;28;20233;-85
2022/08/29 01:44:25;;;;;;;5.70;5.20;;;20.70;78.80;21.10;96666.00;;;;5091847;28;20252;-85
2022/08/29 01:46:55;;;;;;;5.90;5.40;;;20.70;78.90;21.10;96672.00;;;;5091927;28;20751;-86
2022/08/29 01:49:24;;;;;;;4.93;4.53;;;20.70;78.80;21.10;96667.00;;;;5092006;28;20306;-85
2022/08/29 01:51:53;;;;;;;5.43;5.03;;;20.70;78.80;21.10;96669.00;;;;5092173;28;20245;-85
2022/08/29 01:54:20;;;;;;;5.60;5.20;;;20.70;78.70;21.00;96666.00;;;;5091634;28;20203;-84
2022/08/29 01:56:53;;;;;;;5.77;5.27;;;20.60;78.50;21.00;96663.00;;;;5091658;28;20239;-85
2022/08/29 01:59:32;;;;;;;5.07;4.67;;;20.60;78.40;20.90;96657.00;;;;5091714;28;20304;-84
2022/08/29 02:02:05;;;;;;;5.17;4.77;;;20.60;78.30;20.90;96655.00;;;;5091084;28;20207;-85
2022/08/29 02:04:33;;;;;;;5.60;4.87;;;20.50;78.20;20.90;96655.00;;;;5090790;28;20238;-85
2022/08/29 02:07:24;;;;;;;4.70;4.40;;;20.50;78.30;20.80;96662.00;;;;5090836;28;20219;-83
2022/08/29 02:09:52;;;;;;;4.20;3.80;;;20.50;78.60;20.80;96658.00;;;;5092291;28;20262;-85
2022/08/29 02:12:21;;;;;;;4.40;4.07;;;20.40;78.80;20.80;96654.00;;;;5092558;28;20237;-85
2022/08/29 02:17:17;;;;;;;4.97;4.57;;;20.40;79.20;20.70;96651.00;;;;5049422;28;20213;-85
2022/08/29 02:19:44;;;;;;;4.30;3.90;;;20.30;79.10;20.70;96653.00;;;;5050665;28;20224;-85
2022/08/29 02:22:13;;;;;;;3.93;3.63;;;20.30;79.10;20.70;96652.00;;;;5051161;28;20541;-85
2022/08/29 02:24:40;;;;;;;4.37;4.07;;;20.30;79.20;20.70;96652.00;;;;5050855;28;20740;-86
2022/08/29 02:27:09;;;;;;;4.43;4.13;;;20.30;79.10;20.60;96642.00;;;;5050680;28;20311;-86
2022/08/29 02:29:38;;;;;;;4.23;4.03;;;20.30;79.00;20.60;96655.00;;;;5119196;22;20313;-84
2022/08/29 02:32:07;;;;;;;4.37;4.07;;;20.30;78.80;20.60;96656.00;;;;5121896;28;20205;-84
2022/08/29 02:34:34;;;;;;;5.60;4.17;;;20.30;78.80;20.50;96659.00;;;;5121439;28;20282;-84
2022/08/29 02:37:01;;;;;;;4.23;3.83;;;20.20;79.50;20.50;96664.00;;;;5121869;28;20725;-84
2022/08/29 02:39:29;;;;;;;4.67;4.30;;;20.20;78.70;20.50;96664.00;;;;5121558;28;20716;-84
2022/08/29 02:41:56;;;;;;;4.17;3.87;;;20.10;78.60;20.50;96657.00;;;;5121566;28;20191;-84
2022/08/29 02:44:24;;;;;;;4.50;4.20;;;20.10;78.70;20.50;96661.00;;;;5120521;28;20220;-84
2022/08/29 02:46:52;;;;;;;4.23;3.93;;;20.10;78.70;20.50;96657.00;;;;5120852;28;20258;-84
2022/08/29 02:49:19;;;;;;;4.27;3.97;;;20.10;78.80;20.40;96654.00;;;;5121395;28;20244;-84
2022/08/29 02:51:46;;;;;;;4.30;4.00;;;20.10;78.90;20.40;96648.00;;;;5120929;28;20263;-84
2022/08/29 02:54:14;;;;;;;4.53;4.07;;;20.10;78.90;20.40;96657.00;;;;5119480;28;20734;-84
2022/08/29 02:56:41;;;;;;;4.53;4.13;;;20.00;78.80;20.40;96655.00;;;;5120195;28;20240;-83
2022/08/29 02:59:08;;;;;;;4.33;4.03;;;20.00;78.90;20.40;96651.00;;;;5119680;28;20734;-84
2022/08/29 03:01:37;;;;;;;4.90;4.50;;;20.00;79.00;20.30;96659.00;;;;5117854;28;20316;-84
2022/08/29 03:04:06;;;;;;;5.00;4.60;;;20.00;79.00;20.30;96659.00;;;;5099708;28;20199;-84
2022/08/29 03:06:33;;;;;;;4.73;4.43;;;19.90;78.90;20.30;96662.00;;;;5098994;28;20255;-84
2022/08/29 03:09:01;;;;;;;4.30;4.00;;;19.90;79.00;20.30;96667.00;;;;5099055;28;20261;-84
2022/08/29 03:11:29;;;;;;;5.20;4.60;;;19.90;78.90;20.20;96662.00;;;;5098975;28;20231;-84
2022/08/29 03:13:57;;;;;;;4.70;4.30;;;19.90;78.80;20.20;96675.00;;;;5098398;28;20195;-84
2022/08/29 03:16:24;;;;;;;4.30;4.00;;;19.90;78.90;20.20;96675.00;;;;5098494;28;20237;-84
2022/08/29 03:18:51;;;;;;;4.67;4.27;;;19.80;78.80;20.20;96671.00;;;;5097481;28;20265;-84
2022/08/29 03:21:24;;;;;;;5.07;4.67;;;19.80;78.80;20.20;96675.00;;;;5097938;28;20336;-84
2022/08/29 03:23:52;;;;;;;4.37;3.87;;;19.80;79.00;20.10;96670.00;;;;5098155;28;20223;-84
2022/08/29 03:26:20;;;;;;;5.20;4.70;;;19.80;79.10;20.10;96674.00;;;;5097542;28;20229;-84
2022/08/29 03:28:48;;;;;;;6.17;4.47;;;19.70;79.20;20.10;96670.00;;;;5097251;28;20690;-84
2022/08/29 03:31:15;;;;;;;7.17;4.40;;;19.70;79.40;20.10;96674.00;;;;5097394;28;20483;-84
2022/08/29 03:33:43;;;;;;;6.47;4.90;;;19.70;79.50;20.00;96674.00;;;;5097054;28;20639;-84
2022/08/29 03:36:11;;;;;;;8.40;4.60;;;19.70;79.50;20.00;96674.00;;;;5096961;28;20201;-84
2022/08/29 03:38:40;;;;;;;5.13;4.00;;;19.70;79.60;20.00;96678.00;;;;5096851;28;20215;-84
2022/08/29 03:41:08;;;;;;;4.03;3.70;;;19.60;79.70;20.00;96672.00;;;;5095321;28;20203;-84
2022/08/29 03:43:36;;;;;;;4.13;3.83;;;19.60;80.00;20.00;96677.00;;;;5096435;28;20195;-84
2022/08/29 03:46:03;;;;;;;3.73;3.43;;;19.60;81.00;20.00;96679.00;;;;5095341;28;20718;-84
2022/08/29 03:48:32;;;;;;;4.83;3.60;;;19.60;80.30;20.00;96683.00;;;;5096004;28;20250;-84
2022/08/29 03:50:59;;;;;;;3.53;3.33;;;19.60;80.20;20.00;96686.00;;;;5095774;28;20199;-84
2022/08/29 03:53:26;;;;;;;3.63;3.33;;;19.60;80.20;20.00;96679.00;;;;5095196;28;20223;-84
2022/08/29 03:55:54;;;;;;;3.80;3.53;;;19.60;80.50;19.90;96684.00;;;;5095414;28;20203;-84
2022/08/29 03:58:21;;;;;;;3.67;3.37;;;19.60;80.40;19.90;96682.00;;;;5096123;28;20305;-84
2022/08/29 04:00:49;;;;;;;3.43;3.23;;;19.50;80.40;19.90;96689.00;;;;5095664;28;20225;-84
2022/08/29 04:03:17;;;;;;;6.17;3.40;;;19.50;80.50;19.90;96694.00;;;;5111065;28;20234;-84
2022/08/29 04:05:44;;;;;;;4.80;3.70;;;19.50;80.70;19.90;96696.00;;;;5115016;28;20218;-84
2022/08/29 04:08:11;;;;;;;4.47;3.27;;;19.50;81.00;19.90;96693.00;;;;5116129;28;20246;-84
2022/08/29 04:10:39;;;;;;;7.77;3.37;;;19.50;81.20;20.00;96693.00;;;;5115632;28;20210;-84
2022/08/29 04:13:08;;;;;;;3.73;3.43;;;19.50;81.40;20.00;96695.00;;;;5115626;28;20282;-84
2022/08/29 04:15:38;;;;;;;4.80;3.50;;;19.50;81.60;20.00;96690.00;;;;5114977;28;20195;-85
2022/08/29 04:18:08;;;;;;;3.73;3.43;;;19.50;81.80;20.00;96692.00;;;;5115716;28;20743;-84
2022/08/29 04:20:40;;;;;;;5.07;3.40;;;19.50;82.00;20.10;96687.00;;;;5114736;27;20285;-84
2022/08/29 04:23:09;;;;;;;3.77;3.43;;;19.60;82.00;20.10;96688.00;;;;5115276;28;20239;-84
2022/08/29 04:25:36;;;;;;;6.90;3.90;;;19.60;82.10;20.10;96692.00;;;;5114384;28;20201;-84
2022/08/29 04:28:06;;;;;;;3.80;3.50;;;19.60;82.20;20.10;96695.00;;;;5113990;28;20652;-84
2022/08/29 04:30:36;;;;;;;3.77;3.37;;;19.60;82.30;20.10;96698.00;;;;5114872;28;20566;-84
2022/08/29 04:33:04;;;;;;;3.80;3.50;;;19.70;82.40;20.20;96694.00;;;;5099979;28;20687;-85
2022/08/29 04:35:31;;;;;;;3.63;3.40;;;19.70;82.40;20.20;96703.00;;;;5093360;28;20294;-84
2022/08/29 04:37:58;;;;;;;3.73;3.43;;;19.70;82.50;20.20;96700.00;;;;5093547;28;20255;-85
2022/08/29 04:40:25;;;;;;;4.07;3.70;;;19.70;82.60;20.30;96703.00;;;;5095166;28;20241;-84
2022/08/29 04:42:53;;;;;;;4.03;3.60;;;19.80;83.40;20.30;96707.00;;;;5094196;28;20278;-85
2022/08/29 04:45:23;;;;;;;8.77;3.77;;;19.80;82.70;20.30;96700.00;;;;5093804;28;20223;-85
2022/08/29 04:47:52;;;;;;;3.93;3.60;;;19.80;82.70;20.30;96701.00;;;;5093320;28;20310;-84
2022/08/29 04:50:22;;;;;;;5.77;3.10;;;19.80;82.80;20.40;96708.00;;;;5093150;28;20294;-85
2022/08/29 04:52:51;;;;;;;8.77;3.83;;;19.80;82.70;20.40;96708.00;;;;5093028;28;20210;-85
2022/08/29 04:55:21;;;;;;;10.77;3.53;;;19.90;82.80;20.40;96714.00;;;;5092815;28;20206;-84
2022/08/29 04:57:49;;;;;;;3.90;3.20;;;19.90;82.70;20.40;96708.00;;;;5092577;28;20675;-84
2022/08/29 05:00:21;;;;;;;6.37;3.43;;;19.90;82.70;20.40;96709.00;;;;5092441;28;20242;-84
2022/08/29 05:02:48;;;;;;;9.20;3.60;;;19.90;82.80;20.50;96709.00;;;;5092655;28;20281;-84
2022/08/29 05:05:17;;;;;;;3.23;2.93;;;20.00;82.90;20.50;96719.00;;;;5092610;28;20196;-84
2022/08/29 05:07:45;;;;;;;5.30;3.10;;;20.00;83.00;20.50;96729.00;;;;5092628;28;20327;-84
2022/08/29 05:10:17;;;;;;;7.30;3.53;;;20.00;82.90;20.50;96718.00;;;;5092844;28;20195;-85
2022/08/29 05:12:45;;;;;;;5.87;3.27;;;20.00;82.90;20.50;96720.00;;;;5092131;28;20195;-84
2022/08/29 05:15:14;;;;;;;3.90;3.50;;;20.00;83.00;20.60;96720.00;;;;5091818;28;20199;-84
2022/08/29 05:17:42;;;;;;;3.97;3.67;;;20.00;83.10;20.60;96721.00;;;;5092741;28;20227;-85
2022/08/29 05:20:10;;;;;;;7.07;3.63;;;20.10;83.20;20.60;96719.00;;;;5092550;28;20226;-85
2022/08/29 05:22:41;;;;;;;6.97;3.77;;;20.10;83.30;20.60;96712.00;;;;5092496;28;20226;-84
2022/08/29 05:25:10;;;;;;;4.03;3.40;;;20.10;83.50;20.60;96718.00;;;;5092433;28;20244;-84
2022/08/29 05:27:40;;;;;;;5.57;3.67;;;20.10;83.40;20.70;96721.00;;;;5092559;28;20219;-84
2022/08/29 05:30:09;;;;;;;4.87;3.57;;;20.10;83.50;20.70;96718.00;;;;5092462;28;20542;-85
2022/08/29 05:32:36;;;;;;;3.83;3.20;;;20.20;83.60;20.70;96720.00;;;;5108242;28;20209;-84
2022/08/29 05:35:03;;;;;;;3.97;3.77;;;20.20;83.60;20.70;96724.00;;;;5118360;28;20225;-84
2022/08/29 05:37:30;;;;;;;3.93;3.63;;;20.20;83.70;20.80;96729.00;;;;5116707;28;20323;-85
2022/08/29 05:39:59;;;;;;;4.53;4.13;;;20.20;83.80;20.80;96730.00;;;;5116071;28;20240;-85
2022/08/29 05:42:27;;;;;;;11.40;4.57;;;20.30;84.00;20.90;96725.00;;;;5114611;28;20722;-86
2022/08/29 05:44:55;;;;;;;8.30;4.27;;;20.30;84.10;21.00;96731.00;;;;5112059;28;20283;-84
2022/08/29 05:47:22;;;;;;;4.93;4.13;;;20.40;84.20;21.00;96735.00;;;;5111296;28;20226;-85
2022/08/29 05:49:50;;;;;;;4.40;4.00;;;20.40;84.20;21.10;96744.00;;;;5114077;28;20780;-83
2022/08/29 05:52:22;;;;;;;8.60;4.40;;;20.50;84.30;21.10;96750.00;;;;5113639;28;20226;-84
2022/08/29 05:54:50;;;;;;;10.70;4.53;;;20.50;84.30;21.20;96753.00;;;;5112915;28;20217;-84
2022/08/29 05:57:21;;;;;;;8.30;4.67;;;20.50;84.20;21.20;96750.00;;;;5113787;28;20236;-84
2022/08/29 05:59:51;;;;;;;5.53;4.47;;;20.60;84.40;21.30;96750.00;;;;5112962;28;20218;-84
2022/08/29 06:02:20;;;;;;;12.20;4.43;;;20.60;84.40;21.30;96752.00;;;;5103968;28;20210;-85
2022/08/29 06:04:47;;;;;;;5.43;4.40;;;20.60;85.10;21.30;96753.00;;;;5092239;28;20195;-84
2022/08/29 06:07:15;;;;;;;4.67;4.27;;;20.60;84.30;21.30;96755.00;;;;5096365;28;20316;-84
2022/08/29 06:09:43;;;;;;;4.73;4.43;;;20.70;84.40;21.40;96746.00;;;;5095497;28;20282;-84
2022/08/29 06:12:13;;;;;;;5.13;4.73;;;20.70;84.40;21.40;96747.00;;;;5095021;28;20195;-84
2022/08/29 06:14:42;;;;;;;4.67;4.37;;;20.80;84.50;21.50;96750.00;;;;5095723;28;20229;-84
2022/08/29 06:17:11;;;;;;;9.47;4.70;;;20.80;84.50;21.50;96748.00;;;;5095538;28;20251;-84
2022/08/29 06:19:39;;;;;;;5.37;4.97;;;20.90;84.50;21.60;96743.00;;;;5095995;28;20645;-84
2022/08/29 06:22:10;;;;;;;5.33;4.83;;;20.90;84.60;21.60;96752.00;;;;5095061;28;20300;-84
2022/08/29 06:24:39;;;;;;;5.97;5.37;;;20.90;84.60;21.70;96755.00;;;;5095448;28;20692;-84
2022/08/29 06:27:06;;;;;;;7.97;5.27;;;21.00;84.60;21.70;96758.00;;;;5095549;28;20684;-84
2022/08/29 06:29:34;;;;;;;5.97;5.50;;;21.00;84.40;21.70;96759.00;;;;5094394;28;20268;-84
2022/08/29 06:32:03;;;;;;;5.90;5.40;;;21.00;84.40;21.80;96758.00;;;;5100309;28;20697;-84
2022/08/29 06:34:31;;;;;;;11.03;5.80;;;21.10;84.40;21.80;96761.00;;;;5115820;28;20253;-84
2022/08/29 06:36:58;;;;;;;6.23;5.53;;;21.10;84.10;21.80;96763.00;;;;5115943;27;20285;-82
2022/08/29 06:39:25;;;;;;;6.57;5.47;;;21.20;84.00;21.90;96764.00;;;;5115750;28;20217;-83
2022/08/29 06:41:52;;;;;;;11.43;5.97;;;21.20;83.90;21.90;96766.00;;;;5115983;28;20227;-83
2022/08/29 06:44:21;;;;;;;5.80;5.30;;;21.20;83.90;21.90;96766.00;;;;5115683;28;20670;-83
2022/08/29 06:46:49;;;;;;;6.50;5.97;;;21.30;83.60;21.80;96765.00;;;;5115058;28;20621;-83
2022/08/29 06:49:20;;;;;;;7.80;5.77;;;21.30;83.40;21.80;96772.00;;;;5115203;28;20217;-83
2022/08/29 06:51:51;;;;;;;7.57;5.33;;;21.30;83.50;21.80;96766.00;;;;5116091;28;20198;-83
2022/08/29 06:54:21;;;;;;;6.60;5.90;;;21.30;83.50;21.90;96770.00;;;;5116306;28;20198;-82
2022/08/29 06:56:49;;;;;;;6.07;5.47;;;21.30;83.50;21.90;96771.00;;;;5115728;28;20205;-83
2022/08/29 06:59:18;;;;;;;6.50;5.80;;;21.30;83.50;21.90;96780.00;;;;5115768;28;20215;-85
2022/08/29 07:01:46;;;;;;;7.43;6.27;;;21.30;83.50;22.00;96785.00;;;;5115921;28;20647;-85
2022/08/29 07:04:14;;;;;;;6.00;5.50;;;21.30;83.60;22.00;96781.00;;;;5115311;28;20225;-85
2022/08/29 07:06:44;;;;;;;7.07;6.37;;;21.40;83.40;22.00;96783.00;;;;5115742;28;20510;-84
2022/08/29 07:09:12;;;;;;;7.10;6.40;;;21.40;83.40;22.10;96784.00;;;;5116374;28;20253;-84
2022/08/29 07:11:42;;;;;;;7.23;6.50;;;21.40;83.40;22.10;96795.00;;;;5116216;28;20214;-85
2022/08/29 07:14:10;;;;;;;7.50;6.80;;;21.40;83.20;22.20;96790.00;;;;5115078;28;20735;-85
2022/08/29 07:16:37;;;;;;;7.03;6.33;;;21.50;83.20;22.20;96789.00;;;;5114541;28;20200;-84
2022/08/29 07:19:06;;;;;;;8.57;6.40;;;21.50;83.30;22.30;96788.00;;;;5114635;28;20220;-84
2022/08/29 07:21:34;;;;;;;7.67;6.57;;;21.50;83.40;22.30;96793.00;;;;5114348;28;21026;-85
2022/08/29 07:24:03;;;;;;;7.70;6.47;;;21.60;83.40;22.30;96786.00;;;;5114892;28;20279;-84
2022/08/29 07:26:37;;;;;;;11.63;6.90;;;21.60;83.50;22.40;96788.00;;;;5113399;28;20237;-85
2022/08/29 07:29:10;;;;;;;7.43;6.30;;;21.70;83.50;22.40;96783.00;;;;5114435;28;20279;-84
2022/08/29 07:31:38;;;;;;;7.20;6.50;;;21.70;83.30;22.50;96793.00;;;;5112110;28;20222;-86
2022/08/29 07:34:06;;;;;;;9.50;6.73;;;21.70;83.20;22.50;96801.00;;;;5094174;28;20568;-86
2022/08/29 07:36:34;;;;;;;7.03;6.40;;;21.70;83.10;22.50;96795.00;;;;5093796;28;20230;-84
2022/08/29 07:39:05;;;;;;;7.77;6.07;;;21.80;83.10;22.60;96802.00;;;;5093956;28;20222;-85
2022/08/29 07:41:33;;;;;;;7.20;6.37;;;21.80;83.00;22.60;96804.00;;;;5094220;28;20195;-85
2022/08/29 07:44:00;;;;;;;7.13;6.37;;;21.90;83.00;22.70;96797.00;;;;5094250;28;20226;-85
2022/08/29 07:46:27;;;;;;;6.97;6.27;;;21.90;82.90;22.70;96804.00;;;;5093713;28;20241;-84
2022/08/29 07:48:55;;;;;;;7.60;6.83;;;22.00;83.80;22.80;96807.00;;;;5093823;28;20288;-85
2022/08/29 07:51:24;;;;;;;7.73;7.00;;;22.00;83.10;22.80;96808.00;;;;5094054;28;20233;-85
2022/08/29 07:53:53;;;;;;;8.20;7.27;;;22.00;83.20;22.80;96813.00;;;;5093866;28;20199;-85
2022/08/29 07:56:27;;;;;;;7.60;6.90;;;22.10;83.20;22.90;96813.00;;;;5093288;28;20215;-85
2022/08/29 07:58:55;;;;;;;7.73;6.77;;;22.10;83.00;23.00;96812.00;;;;5094085;28;20331;-85
2022/08/29 08:01:24;;;;;;;7.63;6.93;;;22.20;83.00;23.00;96816.00;;;;5093660;28;20632;-85
2022/08/29 08:03:53;;;;;;;9.20;8.30;;;22.20;83.10;23.00;96808.00;;;;5093754;28;20199;-85
2022/08/29 08:06:22;;;;;;;8.07;7.27;;;22.20;83.10;23.10;96813.00;;;;5093703;28;20280;-86
2022/08/29 08:08:50;;;;;;;8.07;7.27;;;22.30;83.00;23.10;96816.00;;;;5093218;28;20262;-85
2022/08/29 08:11:22;;;;;;;9.10;7.90;;;22.30;82.90;23.10;96822.00;;;;5093229;28;20279;-85
2022/08/29 08:13:49;;;;;;;8.50;7.60;;;22.40;82.90;23.20;96817.00;;;;5092719;28;20234;-85
2022/08/29 08:16:20;;;;;;;9.53;8.17;;;22.40;82.80;23.20;96817.00;;;;5105717;28;20199;-85
2022/08/29 08:18:48;;;;;;;10.20;8.80;;;22.40;82.80;23.30;96834.00;;;;5113003;28;20299;-85
2022/08/29 08:21:15;;;;;;;9.07;8.20;;;22.50;82.90;23.40;96836.00;;;;5113185;28;20205;-85
2022/08/29 08:23:43;;;;;;;9.40;8.23;;;22.50;82.80;23.40;96837.00;;;;5112938;28;20687;-85
2022/08/29 08:26:13;;;;;;;10.40;9.10;;;22.60;82.80;23.50;96840.00;;;;5112581;28;20237;-85
2022/08/29 08:28:43;;;;;;;8.97;8.07;;;22.60;82.80;23.50;96840.00;;;;5126427;22;20218;-84
2022/08/29 08:31:13;;;;;;;9.20;8.30;;;22.70;82.80;23.60;96842.00;;;;5116205;28;20234;-84
2022/08/29 08:33:43;;;;;;;8.87;7.97;;;22.70;82.60;23.60;96847.00;;;;5114915;28;20209;-85
2022/08/29 08:36:15;;;;;;;8.93;8.03;;;22.80;83.30;23.70;96853.00;;;;5114003;28;20705;-85
2022/08/29 08:38:44;;;;;;;8.97;8.07;;;22.80;82.50;23.80;96855.00;;;;5112903;28;20195;-85
2022/08/29 08:41:32;;;;;;;8.53;7.67;;;22.90;83.20;23.90;96856.00;;;;5114245;28;20288;-85
2022/08/29 08:44:06;;;;;;;8.53;7.60;;;23.00;83.10;23.90;96852.00;;;;5113025;28;20272;-86
2022/08/29 08:46:40;;;;;;;8.53;7.73;;;23.10;82.40;24.00;96849.00;;;;5112977;28;20232;-86
2022/08/29 08:49:15;;;;;;;9.20;8.03;;;23.10;82.20;24.00;96850.00;;;;5113099;28;20625;-85
2022/08/29 08:51:52;;;;;;;9.07;8.17;;;23.20;82.10;24.10;96841.00;;;;5112705;28;20263;-85
2022/08/29 08:54:25;;;;;;;9.50;8.43;;;23.20;82.00;24.10;96846.00;;;;5112584;28;20234;-85
2022/08/29 08:56:58;;;;;;;10.83;8.07;;;23.30;81.80;24.20;96848.00;;;;5113582;28;20250;-85
2022/08/29 08:59:38;;;;;;;8.97;8.07;;;23.30;81.50;24.20;96847.00;;;;5115683;28;20625;-85
2022/08/29 09:02:26;;;;;;;9.90;8.23;;;23.40;81.40;24.30;96843.00;;;;5116511;28;20226;-84
2022/08/29 09:05:15;;;;;;;8.67;7.80;;;23.40;81.40;24.40;96839.00;;;;5115220;28;20196;-85
2022/08/29 09:08:00;;;;;;;8.63;7.80;;;23.50;81.50;24.40;96847.00;;;;5116261;28;20240;-83
2022/08/29 09:10:45;;;;;;;8.63;7.73;;;23.50;81.00;24.50;96847.00;;;;5116950;27;20809;-84
2022/08/29 09:13:30;;;;;;;8.73;7.83;;;23.60;81.10;24.60;96844.00;;;;5116609;28;20193;-84
2022/08/29 09:16:05;;;;;;;7.93;7.23;;;23.70;81.20;24.70;96843.00;;;;5115375;28;20288;-85
2022/08/29 09:18:39;;;;;;;9.23;8.30;;;23.70;81.60;24.80;96842.00;;;;5115041;28;20208;-85
2022/08/29 09:21:13;;;;;;;8.47;7.57;;;23.90;81.90;25.00;96842.00;;;;5114681;28;20212;-85
2022/08/29 09:23:45;;;;;;;7.60;6.80;;;23.90;82.10;25.20;96843.00;;;;5098878;28;20694;-84
2022/08/29 09:26:15;;;;;;;7.50;6.70;;;24.10;82.60;25.50;96848.00;;;;5097238;28;20247;-84
2022/08/29 09:28:43;;;;;;;8.27;7.47;;;24.20;82.70;25.70;96844.00;;;;5096312;28;20246;-84
2022/08/29 09:31:23;;;;;;;7.03;6.37;;;24.40;82.70;25.90;96846.00;;;;5097145;28;20209;-84
2022/08/29 09:33:54;;;;;;;7.80;7.10;;;24.60;82.50;26.10;96849.00;;;;5096935;28;20647;-84
2022/08/29 09:36:39;;;;;;;7.33;6.50;;;24.70;82.40;26.30;96851.00;;;;5097272;28;20175;-84
2022/08/29 09:39:18;;;;;;;6.83;6.13;;;24.90;81.40;26.50;96845.00;;;;5096062;28;20296;-85
2022/08/29 09:41:48;;;;;;;8.83;6.50;;;25.10;81.80;26.80;96847.00;;;;5093526;28;20728;-85
2022/08/29 09:44:25;;;;;;;8.07;7.37;;;25.30;81.70;27.00;96839.00;;;;5095064;28;20195;-84
2022/08/29 09:47:12;;;;;;;6.87;6.27;;;25.50;80.80;27.30;96837.00;;;;5094239;28;20187;-83
2022/08/29 09:49:59;;;;;;;6.93;6.27;;;25.80;80.30;27.50;96840.00;;;;5096516;28;20253;-84
2022/08/29 09:52:27;;;;;;;8.30;7.50;;;26.00;80.60;27.80;96837.00;;;;5096058;28;20581;-84
2022/08/29 09:54:54;;;;;;;8.10;7.40;;;26.20;80.00;28.00;96844.00;;;;5095875;28;20725;-84
2022/08/29 09:57:26;;;;;;;8.00;7.30;;;26.40;79.40;28.20;96848.00;;;;5097125;28;20200;-84
2022/08/29 10:00:12;;;;;;;8.17;7.43;;;26.60;78.60;28.30;96850.00;;;;5096204;28;20219;-84
2022/08/29 10:02:49;;;;;;;8.17;7.37;;;26.80;76.30;28.40;96846.00;;;;5097225;28;20679;-84
2022/08/29 10:05:35;;;;;;;7.53;6.83;;;27.00;75.70;28.50;96852.00;;;;5095676;28;20239;-83
2022/08/29 10:08:06;;;;;;;7.57;6.68;;;27.10;74.90;28.60;96857.00;;;;5096862;28;20215;-84
2022/08/29 10:10:36;;;;;;;6.72;6.15;;;27.20;76.30;28.70;96856.00;;;;5096675;28;20215;-84
2022/08/29 10:13:11;;;;;;;6.57;6.07;;;27.40;75.80;28.90;96855.00;;;;5096379;28;20689;-83
2022/08/29 10:15:47;;;;;;;6.28;5.78;;;27.50;74.40;29.00;96852.00;;;;5095327;28;20553;-84
2022/08/29 10:18:30;;;;;;;6.30;5.72;;;27.70;73.90;29.10;96850.00;;;;5094252;28;20207;-85
2022/08/29 10:21:15;;;;;;;5.82;5.22;;;27.80;74.10;29.20;96842.00;;;;5095666;28;20223;-84
2022/08/29 10:24:02;;;;;;;5.35;4.85;;;28.00;73.10;29.40;96848.00;;;;5095181;28;20715;-84
2022/08/29 10:26:41;;;;;;;6.57;5.32;;;28.10;73.90;29.50;96852.00;;;;5095078;28;20199;-84
2022/08/29 10:29:25;;;;;;;5.47;5.07;;;28.30;74.10;29.70;96850.00;;;;5094976;28;20666;-84
2022/08/29 10:32:14;;;;;;;7.07;6.40;;;28.50;73.20;29.90;96848.00;;;;5096718;28;20183;-83
2022/08/29 10:35:01;;;;;;;5.43;4.93;;;28.70;72.10;30.00;96843.00;;;;5095951;28;20180;-85
2022/08/29 10:37:45;;;;;;;5.53;5.05;;;28.90;72.20;30.10;96842.00;;;;5096168;28;20203;-84
2022/08/29 10:40:24;;;;;;;4.97;4.57;;;29.00;72.60;30.20;96848.00;;;;5095949;28;20245;-84
2022/08/29 10:43:03;;;;;;;5.57;5.10;;;29.20;72.00;30.30;96844.00;;;;5096658;28;20550;-84
2022/08/29 10:45:45;;;;;;;5.18;4.78;;;29.30;71.00;30.40;96846.00;;;;5095798;28;20717;-84
2022/08/29 10:48:26;;;;;;;6.05;5.45;;;29.50;69.50;30.40;96847.00;;;;5095453;28;20207;-84
2022/08/29 10:51:14;;;;;;;4.95;4.55;;;29.50;69.30;30.40;96855.00;;;;5092795;28;20222;-85
2022/08/29 10:53:47;;;;;;;4.72;4.30;;;29.60;68.90;30.30;96848.00;;;;5097136;28;20274;-84
2022/08/29 10:56:22;;;;;;;4.88;4.47;;;29.60;68.80;30.30;96851.00;;;;5097135;28;20199;-84
2022/08/29 10:59:06;;;;;;;5.88;5.32;;;29.60;67.70;30.20;96857.00;;;;5097276;28;20241;-85
2022/08/29 11:01:40;;;;;;;6.18;5.63;;;29.60;67.50;30.10;96851.00;;;;5098984;28;20244;-85
2022/08/29 11:04:17;;;;;;;5.82;5.22;;;29.50;66.30;30.00;96852.00;;;;5118816;28;20248;-84
2022/08/29 11:06:55;;;;;;;5.13;4.72;;;29.40;65.80;29.90;96847.00;;;;5117659;28;20202;-84
2022/08/29 11:09:29;;;;;;;5.38;4.88;;;29.30;66.30;29.70;96838.00;;;;5117366;28;20274;-85
2022/08/29 11:12:07;;;;;;;5.53;4.90;;;29.20;66.40;29.70;96837.00;;;;5118338;28;20269;-85
2022/08/29 11:14:42;;;;;;;5.05;4.65;;;29.10;66.20;29.60;96839.00;;;;5117871;28;20194;-85
2022/08/29 11:17:16;;;;;;;4.05;3.75;;;29.00;66.70;29.50;96832.00;;;;5117691;28;20627;-84